Heer Park, New York
Current Conditions -  °F | °C
As of 10:53 AM on Sunday 21 Dec 2014 (Local Time) from KFRG Reporting Station
Overcast Overcast  
Wind Chill: 28°   Ceiling: 1200
Heat Index: 34°   Visibility: 10mi
Dew Point: 28°   Wind: 7mph
Humidity: 79%   Direction: 310°NW
Pressure: 30.3"   Gusts: NA
Location:  40.6894°N, 73.3745°W
Report Text: KFRG 211553Z 31006KT 10SM OVC012 01/M02 A3030 RMK AO2 SLP262 T00111022
Loading
Personal Weather Stations






























Interactive Weather Map New forecast layout! Learn more

10-Day Weather Forecast

Advertisements
Track Severe Weather on mobile